Time;durP1;ratioP1;P1;durP2;ratioP2;P2;SDS_P1;SDS_P2;PMS_P1;PMS_P2;Temp;Humidity;BMP_temperature;BMP_pressure;BME280_temperature;BME280_humidity;BME280_pressure;Samples;Min_cycle;Max_cycle;Signal;HPM_P1;HPM_P2
2022/12/26 00:02:00;;;;;;;33.67;30.13;;;;;;;3.61;71.03;95823.41;5097518;28;20192;-70
2022/12/26 00:04:27;;;;;;;34.15;30.52;;;;;;;3.65;70.97;95820.91;5097134;28;20542;-70
2022/12/26 00:06:54;;;;;;;49.83;41.17;;;;;;;3.65;71.16;95818.19;5097749;28;20200;-70
2022/12/26 00:09:22;;;;;;;63.33;52.25;;;;;;;3.66;71.22;95820.63;5097604;28;20211;-70
2022/12/26 00:11:49;;;;;;;55.45;47.50;;;;;;;3.63;70.86;95829.38;5097323;28;20197;-70
2022/12/26 00:14:17;;;;;;;34.53;30.83;;;;;;;3.61;71.13;95821.50;5097335;28;20196;-70
2022/12/26 00:16:45;;;;;;;47.50;41.20;;;;;;;3.55;70.76;95822.66;5097206;28;20277;-70
2022/12/26 00:19:12;;;;;;;39.05;34.95;;;;;;;3.45;71.04;95828.25;5097543;28;20195;-70
2022/12/26 00:21:39;;;;;;;37.05;33.15;;;;;;;3.34;70.35;95838.44;5097456;28;20196;-70
2022/12/26 00:24:06;;;;;;;39.28;34.83;;;;;;;3.30;70.78;95842.81;5096894;28;20200;-71
2022/12/26 00:26:35;;;;;;;40.75;36.35;;;;;;;3.33;71.28;95838.72;5096841;28;20200;-72
2022/12/26 00:29:02;;;;;;;39.78;34.45;;;;;;;3.32;71.11;95839.81;5097437;28;20200;-72
2022/12/26 00:31:31;;;;;;;30.25;27.17;;;;;;;3.27;71.07;95846.13;5097164;28;20201;-72
2022/12/26 00:33:58;;;;;;;30.02;26.85;;;;;;;3.27;71.04;95851.59;5097031;28;20197;-72
2022/12/26 00:36:28;;;;;;;30.15;26.92;;;;;;;3.27;71.41;95842.59;5096617;28;20223;-72
2022/12/26 00:38:56;;;;;;;38.13;33.58;;;;;;;3.23;71.42;95836.91;5097163;28;20240;-72
2022/12/26 00:41:23;;;;;;;43.30;37.55;;;;;;;3.12;71.88;95836.19;5097173;28;20196;-72
2022/12/26 00:43:51;;;;;;;35.33;31.60;;;;;;;3.13;72.27;95846.00;5097071;28;20200;-72
2022/12/26 00:46:19;;;;;;;26.95;24.25;;;;;;;3.14;72.13;95847.59;5097672;28;20191;-72
2022/12/26 00:48:46;;;;;;;27.10;24.30;;;;;;;3.11;71.48;95848.19;5097236;28;20193;-72
2022/12/26 00:51:13;;;;;;;26.60;23.92;;;;;;;3.11;71.93;95845.44;5097072;28;20199;-72
2022/12/26 00:53:39;;;;;;;28.67;25.63;;;;;;;3.11;72.21;95839.19;5097076;28;20188;-72
2022/12/26 00:56:07;;;;;;;25.48;22.98;;;;;;;3.11;72.67;95841.91;5096776;28;20196;-72
2022/12/26 00:58:34;;;;;;;26.92;23.88;;;;;;;3.13;72.40;95839.72;5096683;28;20200;-71
2022/12/26 01:01:12;;;;;;;27.20;24.50;;;;;;;3.15;72.16;95840.25;5096494;28;20204;-71
2022/12/26 01:03:39;;;;;;;27.85;25.08;;;;;;;3.10;71.89;95846.56;5096587;28;20200;-70
2022/12/26 01:06:06;;;;;;;28.88;25.98;;;;;;;3.06;71.96;95853.69;5096383;28;20254;-70
2022/12/26 01:08:34;;;;;;;28.35;25.45;;;;;;;3.03;71.65;95853.44;5096491;28;20200;-70
2022/12/26 01:11:03;;;;;;;28.92;24.02;;;;;;;2.99;71.84;95860.56;5096826;28;20204;-70
2022/12/26 01:13:30;;;;;;;26.13;23.35;;;;;;;2.98;72.01;95854.31;5096506;28;20196;-70
2022/12/26 01:15:56;;;;;;;26.08;23.38;;;;;;;2.99;72.03;95861.38;5096433;28;20200;-70
2022/12/26 01:18:25;;;;;;;26.95;23.70;;;;;;;2.98;72.03;95864.38;5095770;28;20212;-70
2022/12/26 01:20:51;;;;;;;19.90;17.42;;;;;;;2.94;72.27;95866.88;5096348;28;20188;-70
2022/12/26 01:23:18;;;;;;;17.67;15.98;;;;;;;2.92;72.34;95879.97;5096450;28;20184;-70
2022/12/26 01:25:45;;;;;;;17.17;15.38;;;;;;;2.98;72.39;95880.72;5095704;28;20656;-70
2022/12/26 01:28:12;;;;;;;22.30;20.02;;;;;;;2.98;71.96;95875.28;5096110;28;20207;-70
2022/12/26 01:30:39;;;;;;;22.02;18.95;;;;;;;2.96;72.27;95872.84;5095856;28;20290;-70
2022/12/26 01:33:06;;;;;;;22.90;20.15;;;;;;;2.88;72.22;95871.53;5096323;28;20212;-70
2022/12/26 01:35:34;;;;;;;22.13;19.60;;;;;;;2.88;72.08;95871.53;5095592;28;20291;-70
2022/12/26 01:38:01;;;;;;;24.58;22.00;;;;;;;2.86;71.89;95875.63;5095515;28;20233;-70
2022/12/26 01:40:27;;;;;;;22.45;19.90;;;;;;;2.85;72.06;95866.66;5095284;28;20235;-70
2022/12/26 01:42:54;;;;;;;23.92;21.42;;;;;;;2.82;72.25;95866.41;5096316;28;20188;-70
2022/12/26 01:45:25;;;;;;;23.58;21.08;;;;;;;2.79;71.93;95856.06;5095851;28;20283;-70
2022/12/26 01:47:55;;;;;;;21.95;19.70;;;;;;;2.80;72.42;95855.00;5095712;28;20200;-69
2022/12/26 01:50:29;;;;;;;21.67;19.45;;;;;;;2.73;72.50;95852.59;5095418;28;20212;-70
2022/12/26 01:53:00;;;;;;;21.95;19.58;;;;;;;2.72;72.42;95852.88;5096147;28;20552;-70
2022/12/26 01:55:28;;;;;;;21.05;18.85;;;;;;;2.65;72.17;95858.63;5095348;28;20200;-70
2022/12/26 01:57:58;;;;;;;19.85;17.85;;;;;;;2.59;72.10;95855.13;5095099;28;20212;-70
2022/12/26 02:00:25;;;;;;;20.10;18.05;;;;;;;2.54;71.91;95855.19;5095244;28;20211;-70
2022/12/26 02:05:36;;;;;;;18.13;16.33;;;;;;;2.53;72.58;95859.00;5095384;28;20224;-70
2022/12/26 02:08:07;;;;;;;18.20;16.48;;;;;;;2.54;72.52;95848.91;5095408;28;20223;-70
2022/12/26 02:10:39;;;;;;;19.70;17.80;;;;;;;2.56;72.90;95847.53;5095716;28;20196;-70
2022/12/26 02:13:06;;;;;;;19.67;17.67;;;;;;;2.58;72.80;95848.06;5095323;28;20212;-70
2022/12/26 02:15:33;;;;;;;19.67;17.65;;;;;;;2.60;72.67;95847.78;5095019;28;20196;-70
2022/12/26 02:18:00;;;;;;;20.27;18.27;;;;;;;2.57;72.62;95849.16;5093859;28;20221;-70
2022/12/26 02:20:28;;;;;;;17.85;16.15;;;;;;;2.56;72.81;95844.00;5094926;28;20193;-70
2022/12/26 02:23:35;;;;;;;16.23;14.70;;;;;;;2.56;73.11;95841.28;5095405;28;20211;-70
2022/12/26 02:26:28;;;;;;;17.73;15.80;;;;;;;2.51;72.47;95839.41;5088029;28;20204;-70
2022/12/26 02:29:46;;;;;;;17.88;15.98;;;;;;;2.48;72.79;95839.97;5094926;28;20206;-70
2022/12/26 02:32:21;;;;;;;16.58;14.88;;;;;;;2.40;73.34;95840.56;5094830;28;20200;-70
2022/12/26 02:34:54;;;;;;;13.75;12.50;;;;;;;2.45;73.52;95845.16;5095076;28;20689;-70
2022/12/26 02:37:32;;;;;;;14.02;12.63;;;;;;;2.42;73.17;95841.91;5095165;28;20212;-70
2022/12/26 02:40:17;;;;;;;14.20;12.73;;;;;;;2.43;73.45;95842.72;5094571;28;20238;-70
2022/12/26 02:42:51;;;;;;;15.20;13.77;;;;;;;2.48;73.29;95833.72;5094684;28;20188;-70
2022/12/26 02:48:20;;;;;;;14.23;12.93;;;;;;;2.48;72.92;95842.69;5058734;28;20285;-70
2022/12/26 03:13:36;;;;;;;16.77;15.15;;;;;;;2.29;73.31;95831.66;5093888;28;20246;-71
2022/12/26 03:18:51;;;;;;;17.20;15.32;;;;;;;2.29;73.45;95837.09;5093742;28;20253;-71
2022/12/26 03:21:23;;;;;;;15.20;13.80;;;;;;;2.32;73.38;95839.22;5094001;28;20208;-71
2022/12/26 03:23:52;;;;;;;16.35;14.75;;;;;;;2.30;73.15;95838.72;5093949;28;20200;-72
2022/12/26 03:26:38;;;;;;;19.73;17.88;;;;;;;2.19;73.13;95847.22;5094045;28;20208;-72
2022/12/26 03:31:49;;;;;;;18.58;16.77;;;;;;;2.15;73.09;95857.88;5097770;28;20216;-72
2022/12/26 03:34:17;;;;;;;19.73;17.77;;;;;;;2.20;73.23;95852.38;5098061;28;20706;-72
2022/12/26 03:36:56;;;;;;;19.30;17.38;;;;;;;2.23;72.93;95851.00;5098571;28;20245;-72
2022/12/26 04:19:22;;;;;;;18.05;16.15;;;;;;;2.21;73.17;95858.63;5097750;28;20239;-72
2022/12/26 04:19:37;;;;;;;17.33;15.50;;;;;;;2.04;73.58;95859.81;5097640;28;20274;-72
2022/12/26 04:44:36;;;;;;;17.50;15.65;;;;;;;1.79;73.34;95870.81;5096483;28;20279;-72
2022/12/26 04:47:02;;;;;;;17.75;16.08;;;;;;;1.74;73.59;95862.66;5096513;28;20204;-72
2022/12/26 04:52:15;;;;;;;16.90;15.30;;;;;;;1.72;73.58;95867.56;5096307;28;20203;-72
2022/12/26 04:54:41;;;;;;;17.48;15.77;;;;;;;1.71;74.00;95877.63;5096692;28;20195;-72
2022/12/26 04:57:08;;;;;;;17.48;15.57;;;;;;;1.73;73.82;95878.16;5096802;28;20188;-73
2022/12/26 04:59:37;;;;;;;16.83;15.07;;;;;;;1.75;74.07;95878.72;5096892;28;20206;-72
2022/12/26 05:10:49;;;;;;;16.67;15.00;;;;;;;1.80;73.47;95875.16;5076497;28;20228;-72
2022/12/26 05:13:15;;;;;;;18.67;15.15;;;;;;;1.78;73.85;95880.88;5096698;28;20632;-72
2022/12/26 05:29:22;;;;;;;14.80;13.30;;;;;;;1.76;74.38;95917.59;5096875;28;20184;-72
2022/12/26 05:31:50;;;;;;;15.05;13.63;;;;;;;1.75;74.47;95915.97;5096086;28;20189;-72
2022/12/26 05:34:19;;;;;;;15.43;13.82;;;;;;;1.80;74.71;95910.50;5095892;28;20188;-72
2022/12/26 05:36:48;;;;;;;16.17;14.60;;;;;;;1.79;74.20;95906.97;5096130;28;20218;-72
2022/12/26 05:39:15;;;;;;;16.27;14.68;;;;;;;1.73;74.03;95905.34;5096323;28;20243;-70
2022/12/26 05:41:42;;;;;;;15.32;13.82;;;;;;;1.68;73.66;95898.03;5095847;28;20266;-70
2022/12/26 05:44:09;;;;;;;15.00;13.75;;;;;;;1.67;73.30;95901.00;5095508;28;20208;-70
2022/12/26 05:46:37;;;;;;;16.13;14.52;;;;;;;1.62;73.40;95904.56;5095254;28;20644;-70
2022/12/26 05:49:06;;;;;;;16.75;15.15;;;;;;;1.59;73.16;95907.84;5095599;28;20192;-70
2022/12/26 05:51:32;;;;;;;18.00;16.20;;;;;;;1.62;73.86;95906.47;5095383;28;20608;-70
2022/12/26 05:53:59;;;;;;;18.42;16.75;;;;;;;1.57;73.38;95907.31;5095678;28;20200;-70
2022/12/26 05:56:26;;;;;;;17.98;16.20;;;;;;;1.56;73.76;95900.25;5095204;28;20254;-70
2022/12/26 05:58:57;;;;;;;18.02;16.42;;;;;;;1.55;73.86;95898.59;5095496;28;20217;-70
2022/12/26 06:01:24;;;;;;;18.05;16.45;;;;;;;1.54;73.93;95904.34;5095521;28;20195;-70
2022/12/26 06:03:53;;;;;;;18.05;16.45;;;;;;;1.54;73.96;95901.63;5095438;28;20527;-70
2022/12/26 06:06:22;;;;;;;17.77;16.13;;;;;;;1.56;74.27;95902.13;5095261;28;20219;-70
2022/12/26 06:08:49;;;;;;;16.75;15.07;;;;;;;1.53;73.89;95905.44;5095552;28;20192;-70
2022/12/26 06:11:17;;;;;;;18.05;16.25;;;;;;;1.53;73.77;95917.13;5095216;28;20196;-70
2022/12/26 06:13:44;;;;;;;18.67;16.73;;;;;;;1.55;74.03;95908.66;5094884;28;20192;-70
2022/12/26 06:16:13;;;;;;;19.35;17.48;;;;;;;1.55;73.84;95924.97;5095173;28;20545;-70
2022/12/26 06:18:41;;;;;;;19.23;17.33;;;;;;;1.52;73.76;95915.47;5094647;28;20239;-70
2022/12/26 06:21:09;;;;;;;18.83;17.20;;;;;;;1.49;74.20;95916.03;5095139;28;20200;-70
2022/12/26 06:23:37;;;;;;;19.15;17.25;;;;;;;1.48;74.18;95916.28;5095120;28;20195;-70
2022/12/26 06:26:06;;;;;;;20.15;18.25;;;;;;;1.51;74.45;95923.91;5094643;28;20203;-70
2022/12/26 06:28:33;;;;;;;20.77;18.65;;;;;;;1.57;74.75;95928.25;5094648;28;20205;-70
2022/12/26 06:31:04;;;;;;;19.58;17.77;;;;;;;1.59;74.82;95929.59;5094771;28;20196;-70
2022/12/26 06:33:31;;;;;;;19.38;17.60;;;;;;;1.64;74.99;95926.88;5094597;28;20200;-70
2022/12/26 06:36:03;;;;;;;19.58;17.75;;;;;;;1.69;74.62;95929.56;5095521;28;20197;-70
2022/12/26 06:38:30;;;;;;;23.50;21.15;;;;;;;1.73;74.84;95929.03;5094218;28;20234;-70
2022/12/26 06:40:58;;;;;;;48.38;44.17;;;;;;;1.74;74.47;95934.19;5094876;28;20204;-70
2022/12/26 06:43:25;;;;;;;29.02;26.42;;;;;;;1.70;74.10;95935.81;5093999;28;20207;-70
2022/12/26 06:45:56;;;;;;;26.33;23.73;;;;;;;1.71;74.50;95934.75;5094811;28;20215;-70
2022/12/26 06:48:23;;;;;;;28.30;25.55;;;;;;;1.72;74.94;95930.94;5094308;28;20200;-70
2022/12/26 06:50:50;;;;;;;30.92;27.80;;;;;;;1.76;74.55;95937.44;5094523;28;20207;-70
2022/12/26 06:53:17;;;;;;;28.40;25.77;;;;;;;1.78;74.69;95932.56;5095027;28;20195;-70
2022/12/26 06:55:44;;;;;;;29.90;26.80;;;;;;;1.83;74.68;95937.16;5094214;28;20198;-70
2022/12/26 06:58:12;;;;;;;30.63;27.73;;;;;;;1.87;75.01;95936.34;5094004;28;20216;-70
2022/12/26 07:00:38;;;;;;;26.70;24.33;;;;;;;1.92;74.92;95943.66;5094172;28;20491;-70
2022/12/26 07:03:05;;;;;;;29.23;26.38;;;;;;;1.98;75.12;95941.75;5094105;28;20203;-70
2022/12/26 07:05:32;;;;;;;32.60;29.50;;;;;;;2.03;75.14;95950.69;5094058;28;20200;-70
2022/12/26 07:07:59;;;;;;;29.33;26.42;;;;;;;2.05;75.34;95947.72;5094225;28;20196;-70
2022/12/26 07:10:25;;;;;;;30.40;27.33;;;;;;;2.09;75.64;95956.94;5093997;28;20211;-70
2022/12/26 07:12:52;;;;;;;29.48;26.65;;;;;;;2.19;75.39;95959.63;5094763;28;20250;-70
2022/12/26 07:15:21;;;;;;;30.15;27.33;;;;;;;2.26;75.52;95962.88;5094842;28;20192;-70
2022/12/26 07:17:48;;;;;;;31.02;28.13;;;;;;;2.33;75.63;95955.22;5094084;28;20211;-70
2022/12/26 07:20:15;;;;;;;32.15;29.05;;;;;;;2.41;75.30;95957.34;5094015;28;20752;-70
2022/12/26 07:22:42;;;;;;;33.28;30.08;;;;;;;2.51;74.98;95964.69;5095111;28;20177;-70
2022/12/26 07:25:09;;;;;;;33.58;30.40;;;;;;;2.59;75.38;95958.63;5095288;28;20177;-70
2022/12/26 07:27:36;;;;;;;31.92;29.02;;;;;;;2.70;75.48;95967.56;5094934;28;20212;-70
2022/12/26 07:30:04;;;;;;;30.25;27.42;;;;;;;2.82;75.08;95964.50;5095313;28;20187;-71
2022/12/26 07:32:32;;;;;;;29.63;26.77;;;;;;;2.87;75.68;95951.66;5094130;28;20208;-70
2022/12/26 07:34:59;;;;;;;29.02;26.42;;;;;;;3.02;75.83;95963.56;5095037;28;20181;-70
2022/12/26 07:37:26;;;;;;;27.92;25.35;;;;;;;3.19;75.91;95944.88;5094797;28;20193;-70
2022/12/26 07:39:53;;;;;;;28.10;25.40;;;;;;;3.36;75.92;95947.22;5094557;28;20243;-70
2022/12/26 07:42:20;;;;;;;27.20;24.67;;;;;;;3.51;76.06;95944.34;5094198;28;20203;-70
2022/12/26 07:44:46;;;;;;;28.63;26.02;;;;;;;3.72;75.28;95953.16;5094324;28;20188;-70
2022/12/26 07:47:13;;;;;;;28.20;25.67;;;;;;;3.85;74.74;95948.94;5094317;28;20212;-70
2022/12/26 07:49:41;;;;;;;30.00;27.30;;;;;;;4.01;74.81;95952.31;5094085;28;20189;-70
2022/12/26 07:52:08;;;;;;;30.50;27.63;;;;;;;4.11;74.17;95949.50;5094247;28;20200;-69
2022/12/26 07:54:35;;;;;;;31.60;28.60;;;;;;;4.21;74.29;95948.53;5093801;28;20635;-70
2022/12/26 07:57:02;;;;;;;31.88;28.77;;;;;;;4.28;73.61;95947.06;5094085;28;20193;-70
2022/12/26 07:59:29;;;;;;;32.03;28.83;;;;;;;4.37;73.63;95946.47;5094035;28;20227;-70
2022/12/26 08:01:57;;;;;;;29.60;26.80;;;;;;;4.55;73.52;95935.56;5094825;28;20267;-70
2022/12/26 08:04:23;;;;;;;26.70;24.10;;;;;;;4.63;73.56;95934.09;5094709;28;20189;-70
2022/12/26 08:06:52;;;;;;;25.75;23.15;;;;;;;4.79;73.44;95940.97;5094609;28;20589;-70
2022/12/26 08:09:18;;;;;;;25.30;23.05;;;;;;;4.98;73.14;95945.63;5094802;28;20199;-70
2022/12/26 08:11:46;;;;;;;24.85;22.48;;;;;;;5.15;72.47;95931.41;5094747;28;20180;-70
2022/12/26 08:14:15;;;;;;;23.27;21.08;;;;;;;5.31;72.02;95932.81;5094336;28;20193;-70
2022/12/26 08:16:42;;;;;;;22.48;20.35;;;;;;;5.44;71.85;95933.97;5095316;28;20223;-70
2022/12/26 08:19:09;;;;;;;22.45;20.38;;;;;;;5.61;71.16;95934.22;5098129;28;20601;-70
2022/12/26 08:21:36;;;;;;;22.38;20.23;;;;;;;5.71;70.68;95941.47;5098006;28;20197;-70
2022/12/26 08:24:05;;;;;;;21.90;19.92;;;;;;;5.88;70.68;95946.34;5097749;28;20207;-69
2022/12/26 08:26:31;;;;;;;23.00;20.90;;;;;;;6.03;70.71;95948.84;5097748;28;20208;-70
2022/12/26 08:28:58;;;;;;;24.73;22.42;;;;;;;6.17;70.45;95948.84;5097072;28;20200;-70
2022/12/26 08:31:25;;;;;;;29.27;26.58;;;;;;;6.25;69.89;95943.50;5097679;28;20207;-70
2022/12/26 08:33:55;;;;;;;60.85;55.15;;;;;;;6.31;69.79;95948.84;5098039;28;20196;-70
2022/12/26 08:36:22;;;;;;;56.15;50.45;;;;;;;6.37;69.62;95944.91;5098063;28;20199;-70
2022/12/26 08:38:49;;;;;;;53.70;48.60;;;;;;;6.46;69.38;95951.28;5098687;28;20236;-71
2022/12/26 08:41:17;;;;;;;62.30;56.35;;;;;;;6.59;69.01;95936.78;5098459;28;20512;-69
2022/12/26 08:43:44;;;;;;;62.70;56.60;;;;;;;6.67;68.68;95929.75;5097201;28;20188;-70
2022/12/26 08:46:12;;;;;;;51.75;46.97;;;;;;;6.72;68.33;95930.47;5098206;28;20223;-70
2022/12/26 08:48:40;;;;;;;43.38;39.28;;;;;;;6.80;68.30;95922.63;5098114;28;20185;-70
2022/12/26 08:51:08;;;;;;;42.30;38.17;;;;;;;6.91;68.06;95915.81;5097949;28;20196;-70
2022/12/26 08:53:36;;;;;;;48.30;43.42;;;;;;;6.98;67.45;95914.25;5097748;28;20192;-70
2022/12/26 08:56:04;;;;;;;49.17;44.30;;;;;;;7.12;68.03;95918.91;5097861;28;20242;-70
2022/12/26 08:58:34;;;;;;;47.53;42.85;;;;;;;7.22;67.64;95910.41;5098389;28;20208;-70
2022/12/26 09:01:07;;;;;;;46.50;42.03;;;;;;;7.31;67.39;95905.81;5098870;28;20188;-70
2022/12/26 09:03:34;;;;;;;44.92;40.63;;;;;;;7.43;66.92;95905.22;5098290;28;20181;-71
2022/12/26 09:06:01;;;;;;;45.10;40.70;;;;;;;7.52;66.86;95906.13;5098367;28;20219;-70
2022/12/26 09:08:29;;;;;;;52.97;48.08;;;;;;;7.59;66.00;95906.47;5097677;28;20199;-70
2022/12/26 09:10:57;;;;;;;56.53;50.95;;;;;;;7.67;66.21;95902.16;5096975;28;20192;-70
2022/12/26 09:13:23;;;;;;;51.38;46.20;;;;;;;7.71;64.70;95900.41;5097531;28;20223;-70
2022/12/26 09:15:52;;;;;;;40.22;36.17;;;;;;;7.70;65.07;95913.34;5097249;28;20600;-70
2022/12/26 09:18:19;;;;;;;33.67;30.33;;;;;;;7.75;64.28;95906.91;5096455;28;20204;-70
2022/12/26 09:20:45;;;;;;;30.77;27.88;;;;;;;7.69;64.27;95903.44;5097121;28;20582;-70
2022/12/26 09:23:14;;;;;;;28.73;25.92;;;;;;;7.65;64.18;95901.66;5096606;28;20208;-70
2022/12/26 09:25:41;;;;;;;29.70;26.60;;;;;;;7.76;64.16;95908.50;5097080;28;20196;-71
2022/12/26 09:28:08;;;;;;;32.05;28.75;;;;;;;7.94;64.24;95909.41;5096237;28;20192;-70
2022/12/26 09:30:34;;;;;;;27.92;25.23;;;;;;;8.20;63.49;95902.09;5096899;28;20189;-70
2022/12/26 09:33:06;;;;;;;26.50;24.10;;;;;;;8.44;62.88;95901.72;5096449;28;20199;-70
2022/12/26 09:35:33;;;;;;;26.92;24.48;;;;;;;8.82;61.98;95898.44;5096446;28;20196;-70
2022/12/26 09:38:01;;;;;;;26.60;24.15;;;;;;;9.04;60.71;95903.00;5096751;28;20192;-70
2022/12/26 09:40:34;;;;;;;26.02;23.63;;;;;;;9.25;60.35;95903.13;5095346;28;20232;-70
2022/12/26 09:43:09;;;;;;;27.08;24.48;;;;;;;9.47;59.05;95893.06;5095850;28;20192;-70
2022/12/26 09:45:45;;;;;;;27.77;24.98;;;;;;;9.68;58.84;95895.97;5095738;28;20204;-70
2022/12/26 09:48:18;;;;;;;26.42;23.80;;;;;;;9.88;57.52;95898.03;5096623;28;20184;-70
2022/12/26 09:50:49;;;;;;;26.08;23.58;;;;;;;10.03;57.35;95886.47;5096684;28;20266;-70
2022/12/26 09:53:19;;;;;;;28.30;25.60;;;;;;;10.19;56.90;95885.94;5095477;28;20208;-70
2022/12/26 09:55:49;;;;;;;29.55;26.67;;;;;;;10.32;55.63;95888.50;5095144;28;20200;-70
2022/12/26 09:58:23;;;;;;;29.73;26.85;;;;;;;10.29;55.68;95885.59;5095276;28;20196;-70
2022/12/26 10:00:52;;;;;;;28.75;25.88;;;;;;;10.40;56.39;95880.53;5095535;28;20207;-70
2022/12/26 10:03:21;;;;;;;28.35;25.45;;;;;;;10.72;54.94;95873.53;5095206;28;20204;-70
2022/12/26 10:05:58;;;;;;;27.05;24.42;;;;;;;10.76;54.11;95872.53;5094891;28;20230;-70
2022/12/26 10:08:37;;;;;;;27.52;24.95;;;;;;;10.91;53.46;95862.03;5094744;28;20282;-70
2022/12/26 10:11:04;;;;;;;24.02;21.73;;;;;;;10.91;53.15;95868.38;5095171;28;20211;-70
2022/12/26 10:13:34;;;;;;;23.13;21.02;;;;;;;10.89;52.97;95865.13;5096011;28;20184;-70
2022/12/26 10:16:06;;;;;;;22.92;20.63;;;;;;;10.88;52.76;95857.19;5095103;28;20208;-70
2022/12/26 10:18:40;;;;;;;21.67;19.67;;;;;;;10.90;52.21;95854.91;5095510;28;20176;-70
2022/12/26 10:21:29;;;;;;;21.85;19.67;;;;;;;10.81;52.83;95846.69;5096031;28;20191;-70
2022/12/26 10:23:58;;;;;;;20.90;18.90;;;;;;;10.64;53.51;95842.09;5095901;28;20211;-70
2022/12/26 10:26:28;;;;;;;21.50;19.40;;;;;;;10.41;53.85;95841.56;5094786;28;20531;-70
2022/12/26 10:28:58;;;;;;;21.20;19.20;;;;;;;10.17;54.12;95846.84;5094665;28;20546;-70
2022/12/26 10:31:28;;;;;;;20.80;18.88;;;;;;;9.91;54.57;95847.75;5095277;28;20196;-70
2022/12/26 10:34:00;;;;;;;19.52;17.63;;;;;;;9.74;54.98;95842.34;5094634;28;20211;-70
2022/12/26 10:36:31;;;;;;;14.82;13.30;;;;;;;9.52;55.29;95835.09;5094261;28;20207;-70
2022/12/26 10:38:59;;;;;;;13.93;12.52;;;;;;;9.38;55.55;95827.03;5093839;28;20240;-70
2022/12/26 10:41:28;;;;;;;13.07;11.70;;;;;;;9.28;56.27;95830.91;5094821;28;20200;-70
2022/12/26 10:43:55;;;;;;;12.45;11.30;;;;;;;9.20;56.22;95829.00;5094561;28;20215;-70
2022/12/26 10:46:39;;;;;;;12.95;11.55;;;;;;;9.16;56.59;95814.25;5094198;28;20539;-70
2022/12/26 10:49:11;;;;;;;16.95;15.40;;;;;;;9.16;57.35;95828.81;5094499;28;20234;-70
2022/12/26 10:51:38;;;;;;;17.65;15.38;;;;;;;9.12;56.81;95821.56;5094544;28;20220;-70
2022/12/26 10:54:13;;;;;;;21.45;19.23;;;;;;;9.06;57.37;95817.34;5095094;28;20552;-70
2022/12/26 10:56:40;;;;;;;25.52;22.88;;;;;;;9.02;57.52;95819.13;5094494;28;20192;-70
2022/12/26 10:59:13;;;;;;;26.58;23.90;;;;;;;8.97;58.21;95819.28;5094742;28;20208;-70
2022/12/26 11:01:46;;;;;;;21.98;19.67;;;;;;;8.91;58.49;95815.91;5094638;28;20203;-70
2022/12/26 11:04:21;;;;;;;19.95;17.85;;;;;;;8.91;58.06;95811.19;5094587;28;20200;-70
2022/12/26 11:06:51;;;;;;;18.65;16.80;;;;;;;8.92;58.41;95807.31;5094972;28;20207;-70
2022/12/26 11:09:39;;;;;;;21.95;19.75;;;;;;;9.02;58.18;95803.44;5095500;28;20188;-70
2022/12/26 11:12:07;;;;;;;21.77;19.58;;;;;;;9.05;58.02;95802.78;5087998;28;20222;-70
2022/12/26 11:14:38;;;;;;;22.80;20.75;;;;;;;9.14;57.99;95800.81;5094265;28;20192;-70
2022/12/26 11:17:07;;;;;;;24.27;21.70;;;;;;;9.46;58.11;95790.41;5094177;28;20193;-71
2022/12/26 11:19:38;;;;;;;23.77;21.20;;;;;;;9.94;57.16;95793.94;5094736;28;20223;-71
2022/12/26 11:22:20;;;;;;;23.45;21.25;;;;;;;10.48;55.84;95785.91;5094374;28;20208;-70
2022/12/26 11:25:02;;;;;;;22.08;19.92;;;;;;;11.08;54.00;95790.16;5094483;28;20193;-70
2022/12/26 11:27:29;;;;;;;21.77;19.55;;;;;;;11.67;52.16;95789.06;5094464;28;20200;-70
2022/12/26 11:30:11;;;;;;;22.65;20.55;;;;;;;12.23;50.47;95781.88;5094546;28;20196;-70
2022/12/26 11:32:38;;;;;;;22.85;20.55;;;;;;;13.11;48.30;95782.19;5093880;28;20204;-70
2022/12/26 11:35:15;;;;;;;22.73;20.52;;;;;;;14.30;45.36;95770.25;5094393;28;20207;-70
2022/12/26 11:37:44;;;;;;;22.25;20.15;;;;;;;15.60;42.60;95777.44;5094449;28;20203;-70
2022/12/26 11:40:17;;;;;;;23.55;21.08;;;;;;;16.78;39.29;95769.16;5093786;28;20236;-70
2022/12/26 11:42:49;;;;;;;23.15;20.95;;;;;;;17.18;38.03;95767.72;5094082;28;20200;-70
2022/12/26 11:45:22;;;;;;;23.27;20.90;;;;;;;17.04;37.69;95761.94;5094107;28;20207;-70
2022/12/26 11:47:48;;;;;;;22.95;20.58;;;;;;;16.99;38.24;95757.50;5094165;28;20197;-70
2022/12/26 11:50:26;;;;;;;21.70;19.50;;;;;;;17.16;37.33;95763.69;5095009;28;20222;-70
2022/12/26 11:53:04;;;;;;;21.38;19.15;;;;;;;17.22;37.39;95757.41;5098262;28;20654;-70
2022/12/26 11:55:34;;;;;;;20.98;19.00;;;;;;;17.56;36.79;95749.81;5098328;28;20214;-70
2022/12/26 11:58:05;;;;;;;20.48;18.58;;;;;;;18.06;36.15;95746.78;5099420;28;20279;-70
2022/12/26 12:00:33;;;;;;;19.35;17.38;;;;;;;18.35;35.25;95739.44;5098973;28;20291;-70
2022/12/26 12:03:02;;;;;;;20.02;17.88;;;;;;;18.11;35.52;95737.25;5098679;28;20203;-70
2022/12/26 12:05:40;;;;;;;18.60;16.70;;;;;;;17.31;36.67;95740.38;5098971;28;20295;-70
2022/12/26 12:08:33;;;;;;;18.92;16.95;;;;;;;17.01;37.46;95735.63;5098358;28;20203;-70
2022/12/26 12:11:08;;;;;;;19.38;17.48;;;;;;;17.48;37.25;95719.47;5084881;28;20212;-70
2022/12/26 12:13:49;;;;;;;18.38;16.50;;;;;;;18.55;34.77;95728.00;5098679;28;20257;-70
2022/12/26 12:16:32;;;;;;;16.48;14.93;;;;;;;19.05;34.04;95717.94;5098369;28;20278;-70
2022/12/26 12:19:09;;;;;;;16.90;15.13;;;;;;;18.20;34.41;95724.56;5097537;28;20204;-70
2022/12/26 12:21:42;;;;;;;16.40;14.93;;;;;;;16.74;36.59;95720.13;5097967;28;20198;-70
2022/12/26 12:24:28;;;;;;;16.80;15.10;;;;;;;15.58;39.21;95716.66;5097442;28;20208;-70
2022/12/26 12:27:01;;;;;;;15.95;14.35;;;;;;;14.90;40.50;95723.66;5096237;28;20203;-70
2022/12/26 12:29:49;;;;;;;15.93;14.43;;;;;;;14.38;41.37;95730.44;5098103;28;20203;-70
2022/12/26 12:32:18;;;;;;;14.73;13.27;;;;;;;13.96;43.01;95724.66;5096694;28;20204;-70
2022/12/26 12:35:13;;;;;;;14.95;13.55;;;;;;;13.55;43.76;95724.03;5098232;28;20200;-69
2022/12/26 12:37:50;;;;;;;14.43;13.02;;;;;;;13.34;44.33;95723.47;5097809;28;20238;-70
2022/12/26 12:40:28;;;;;;;14.85;13.45;;;;;;;13.10;45.01;95729.91;5097435;28;20236;-70
2022/12/26 12:42:59;;;;;;;15.00;13.40;;;;;;;12.92;45.44;95724.66;5097879;28;20188;-70
2022/12/26 12:45:31;;;;;;;13.68;12.27;;;;;;;12.76;46.04;95721.84;5096507;28;20655;-70
2022/12/26 12:48:12;;;;;;;13.68;12.40;;;;;;;12.59;46.82;95735.16;5096635;28;20200;-70
2022/12/26 12:50:44;;;;;;;14.02;12.57;;;;;;;12.43;47.17;95727.56;5097742;28;20245;-70
2022/12/26 12:53:20;;;;;;;14.05;12.65;;;;;;;12.36;47.40;95729.31;5097186;28;20569;-70
2022/12/26 12:55:59;;;;;;;13.10;11.25;;;;;;;12.22;47.72;95729.69;5096853;28;20196;-70
2022/12/26 12:58:30;;;;;;;14.07;12.15;;;;;;;12.12;48.45;95727.38;5096621;28;20203;-70
2022/12/26 13:01:00;;;;;;;13.55;12.15;;;;;;;12.01;48.44;95725.06;5097116;28;20223;-70
2022/12/26 13:03:31;;;;;;;13.05;11.80;;;;;;;11.90;48.34;95723.13;5095681;28;20193;-70
2022/12/26 13:06:03;;;;;;;14.25;12.07;;;;;;;11.80;48.66;95725.19;5096595;28;20200;-70
2022/12/26 13:08:35;;;;;;;13.60;12.20;;;;;;;11.74;49.10;95723.78;5097025;28;20192;-70
2022/12/26 13:11:06;;;;;;;12.07;10.98;;;;;;;11.69;48.76;95724.03;5096398;28;20188;-70
2022/12/26 13:13:35;;;;;;;12.65;11.25;;;;;;;11.66;49.44;95727.47;5096584;28;20208;-70
2022/12/26 13:16:06;;;;;;;14.13;12.63;;;;;;;11.63;48.96;95722.63;5096999;28;20188;-70
2022/12/26 13:18:35;;;;;;;14.15;12.63;;;;;;;11.59;48.94;95729.19;5096196;28;20203;-70
2022/12/26 13:21:06;;;;;;;13.60;12.18;;;;;;;11.46;49.06;95731.09;5096990;28;20212;-70
2022/12/26 13:26:24;;;;;;;13.35;12.10;;;;;;;11.33;50.00;95733.06;5095955;28;20197;-70
2022/12/26 13:28:56;;;;;;;14.35;12.80;;;;;;;11.29;50.92;95721.06;5096340;28;20204;-70
2022/12/26 13:31:23;;;;;;;13.15;11.75;;;;;;;11.26;50.39;95721.75;5096396;28;20203;-70
2022/12/26 13:33:50;;;;;;;16.70;12.13;;;;;;;11.22;50.90;95718.88;5097074;28;20258;-70
2022/12/26 13:36:53;;;;;;;13.63;12.20;;;;;;;11.17;50.78;95718.28;5095914;28;20192;-70
2022/12/26 13:39:41;;;;;;;12.63;11.32;;;;;;;11.13;51.07;95720.09;5096886;28;20565;-70
2022/12/26 13:45:57;;;;;;;13.65;12.25;;;;;;;11.01;51.92;95715.34;5095442;28;20192;-69